Caledon, Canada
Current Conditions -  °F | °C
As of 8:00 AM on Wednesday 22 Oct 2014 (Local Time) from CYYZ Reporting Station
Few Clouds Few Clouds  
Wind Chill: 29°   Ceiling: Unl
Heat Index: 37°   Visibility: 15mi
Dew Point: 34°   Wind: 15mph
Humidity: 87%   Direction: 350°N
Pressure: 30.25"   Gusts: NA
Location:  43.87°N, 80°W
Report Text: CYYZ 221200Z 35013KT 15SM FEW055 03/01 A3025 RMK SC1 SLP250
Loading
Personal Weather Stations






























Interactive Weather Map New forecast layout! Learn more

10-Day Weather Forecast

Advertisements
Track Severe Weather on mobile